Time;durP1;ratioP1;P1;durP2;ratioP2;P2;SDS_P1;SDS_P2;PMS_P1;PMS_P2;Temp;Humidity;BMP_temperature;BMP_pressure;BME280_temperature;BME280_humidity;BME280_pressure;Samples;Min_cycle;Max_cycle;Signal;HPM_P1;HPM_P2
2023/04/17 00:02:12;;;;;;;39.35;19.25;;;9.30;99.90;;;;;;5091280;28;20113;-62
2023/04/17 00:04:39;;;;;;;38.58;19.13;;;9.30;99.90;;;;;;5091208;28;20395;-63
2023/04/17 00:07:05;;;;;;;36.92;18.92;;;9.20;99.90;;;;;;5091333;28;20027;-63
2023/04/17 00:09:31;;;;;;;38.03;19.08;;;9.30;99.90;;;;;;5091604;28;20020;-64
2023/04/17 00:11:59;;;;;;;33.95;17.40;;;9.30;99.90;;;;;;5092148;28;20102;-63
2023/04/17 00:14:25;;;;;;;43.58;17.73;;;9.30;99.90;;;;;;5094932;28;20043;-64
2023/04/17 00:16:51;;;;;;;36.67;18.55;;;9.30;99.90;;;;;;5095348;28;20056;-62
2023/04/17 00:19:16;;;;;;;32.40;16.80;;;9.30;99.90;;;;;;5095388;28;20028;-63
2023/04/17 00:21:42;;;;;;;34.63;17.98;;;9.30;99.90;;;;;;5094511;28;20053;-63
2023/04/17 00:24:08;;;;;;;36.25;16.13;;;9.30;99.90;;;;;;5095309;28;20492;-63
2023/04/17 00:26:33;;;;;;;32.42;16.42;;;9.30;99.90;;;;;;5094876;28;20522;-63
2023/04/17 00:29:02;;;;;;;39.55;17.27;;;9.30;99.90;;;;;;5094455;28;20099;-63
2023/04/17 00:31:27;;;;;;;34.28;18.20;;;9.20;99.90;;;;;;5094799;28;20115;-63
2023/04/17 00:33:53;;;;;;;32.83;15.75;;;9.20;99.90;;;;;;5095095;28;20108;-62
2023/04/17 00:36:19;;;;;;;31.42;16.15;;;9.20;99.90;;;;;;5094334;28;20024;-63
2023/04/17 00:38:44;;;;;;;31.67;16.10;;;9.20;99.90;;;;;;5094610;28;20020;-63
2023/04/17 00:41:10;;;;;;;30.98;16.63;;;9.20;99.90;;;;;;5095006;28;20058;-63
2023/04/17 00:43:37;;;;;;;31.88;16.35;;;9.20;99.90;;;;;;5094101;28;20440;-63
2023/04/17 00:46:04;;;;;;;32.92;17.58;;;9.10;99.90;;;;;;5093350;28;20032;-63
2023/04/17 00:48:30;;;;;;;32.85;16.33;;;9.10;99.90;;;;;;5094282;28;20067;-63
2023/04/17 00:51:00;;;;;;;33.28;16.10;;;9.00;99.90;;;;;;5094114;28;20519;-63
2023/04/17 00:53:30;;;;;;;33.33;16.33;;;9.00;99.90;;;;;;5094668;28;20016;-64
2023/04/17 00:55:57;;;;;;;33.70;16.58;;;9.00;99.90;;;;;;5094537;28;20047;-64
2023/04/17 00:58:24;;;;;;;35.55;17.50;;;9.00;99.90;;;;;;5092724;28;20114;-64
2023/04/17 01:00:50;;;;;;;30.63;15.93;;;9.00;99.90;;;;;;5094140;28;20103;-63
2023/04/17 01:03:16;;;;;;;33.75;16.63;;;9.00;99.90;;;;;;5093821;28;20070;-64
2023/04/17 01:05:43;;;;;;;35.30;17.25;;;9.00;99.90;;;;;;5093805;28;20048;-64
2023/04/17 01:08:09;;;;;;;33.05;16.50;;;8.90;99.90;;;;;;5094185;28;20104;-64
2023/04/17 01:10:35;;;;;;;38.00;17.33;;;8.90;99.90;;;;;;5093566;28;20388;-63
2023/04/17 01:13:05;;;;;;;33.25;17.42;;;8.90;99.90;;;;;;5094429;28;20020;-63
2023/04/17 01:15:31;;;;;;;40.20;17.27;;;8.90;99.90;;;;;;5094340;28;20392;-64
2023/04/17 01:17:57;;;;;;;32.25;16.58;;;8.90;99.90;;;;;;5093636;28;20024;-64
2023/04/17 01:20:24;;;;;;;35.30;17.67;;;8.90;99.90;;;;;;5093970;28;20085;-63
2023/04/17 01:22:52;;;;;;;33.67;17.38;;;8.90;99.90;;;;;;5093659;28;20028;-63
2023/04/17 01:25:18;;;;;;;34.22;17.30;;;8.90;99.90;;;;;;5093413;28;20024;-63
2023/04/17 01:27:44;;;;;;;36.03;17.92;;;8.90;99.90;;;;;;5093909;28;20023;-63
2023/04/17 01:30:10;;;;;;;32.67;16.02;;;8.80;99.90;;;;;;5094038;28;20020;-63
2023/04/17 01:32:36;;;;;;;35.33;18.50;;;8.80;99.90;;;;;;5093231;28;20173;-63
2023/04/17 01:35:02;;;;;;;33.75;16.80;;;8.80;99.90;;;;;;5092577;28;20464;-64
2023/04/17 01:37:28;;;;;;;32.60;16.60;;;8.80;99.90;;;;;;5093437;28;20032;-63
2023/04/17 01:39:54;;;;;;;34.97;18.13;;;8.80;99.90;;;;;;5093086;28;20024;-63
2023/04/17 01:42:20;;;;;;;36.40;18.30;;;8.80;99.90;;;;;;5092528;28;20027;-63
2023/04/17 01:44:46;;;;;;;32.30;16.50;;;8.80;99.90;;;;;;5093321;28;20028;-64
2023/04/17 01:47:11;;;;;;;35.03;18.40;;;8.80;99.90;;;;;;5093165;28;20085;-64
2023/04/17 01:49:37;;;;;;;30.20;16.80;;;8.80;99.90;;;;;;5093343;28;20432;-62
2023/04/17 01:52:02;;;;;;;35.42;18.80;;;8.80;99.90;;;;;;5093334;28;20048;-62
2023/04/17 01:54:28;;;;;;;37.60;19.20;;;8.90;99.90;;;;;;5092545;28;20020;-62
2023/04/17 01:56:54;;;;;;;36.80;19.23;;;8.80;99.90;;;;;;5093224;28;20465;-63
2023/04/17 01:59:19;;;;;;;33.30;17.63;;;8.80;99.90;;;;;;5093304;28;20035;-63
2023/04/17 02:01:45;;;;;;;35.20;18.27;;;8.90;99.90;;;;;;5091125;28;20353;-63
2023/04/17 02:04:11;;;;;;;33.80;17.88;;;8.80;99.90;;;;;;5093352;28;20503;-63
2023/04/17 02:06:36;;;;;;;33.97;17.63;;;8.80;99.90;;;;;;5092512;28;20126;-63
2023/04/17 02:09:02;;;;;;;39.60;20.15;;;8.90;99.90;;;;;;5093357;28;20016;-63
2023/04/17 02:11:28;;;;;;;35.15;17.08;;;8.80;99.90;;;;;;5092928;28;20306;-63
2023/04/17 02:13:53;;;;;;;43.15;19.98;;;8.80;99.90;;;;;;5091284;28;20031;-64
2023/04/17 02:16:20;;;;;;;36.50;17.73;;;8.80;99.90;;;;;;5091637;28;20377;-64
2023/04/17 02:18:47;;;;;;;41.22;19.38;;;8.70;99.90;;;;;;5092880;28;20024;-63
2023/04/17 02:21:12;;;;;;;37.15;17.33;;;8.70;99.90;;;;;;5091368;28;20043;-62
2023/04/17 02:23:38;;;;;;;33.13;17.48;;;8.70;99.90;;;;;;5091311;28;20365;-63
2023/04/17 02:26:04;;;;;;;34.13;17.05;;;8.70;99.90;;;;;;5093312;28;20032;-63
2023/04/17 02:28:30;;;;;;;34.17;17.02;;;8.70;99.90;;;;;;5091586;28;20365;-64
2023/04/17 02:30:56;;;;;;;35.13;17.48;;;8.70;99.90;;;;;;5093124;28;20491;-64
2023/04/17 02:33:21;;;;;;;34.65;15.75;;;8.70;99.90;;;;;;5092747;28;20020;-64
2023/04/17 02:35:47;;;;;;;33.47;16.25;;;8.70;99.90;;;;;;5091489;28;20031;-63
2023/04/17 02:38:13;;;;;;;33.75;17.45;;;8.70;99.90;;;;;;5092535;28;20035;-64
2023/04/17 02:40:38;;;;;;;32.45;17.38;;;8.70;99.90;;;;;;5092598;28;20169;-64
2023/04/17 02:43:04;;;;;;;33.53;17.08;;;8.70;99.90;;;;;;5092201;28;20020;-63
2023/04/17 02:45:30;;;;;;;35.85;17.67;;;8.70;99.90;;;;;;5092301;28;20085;-64
2023/04/17 02:47:56;;;;;;;27.88;15.90;;;8.70;99.90;;;;;;5092433;28;20036;-62
2023/04/17 02:50:21;;;;;;;32.90;17.50;;;8.60;99.90;;;;;;5092254;28;20027;-63
2023/04/17 02:52:47;;;;;;;34.15;16.25;;;8.70;99.90;;;;;;5092246;28;20028;-63
2023/04/17 02:55:13;;;;;;;35.78;17.80;;;8.60;99.90;;;;;;5092263;28;20017;-64
2023/04/17 02:57:38;;;;;;;33.65;16.95;;;8.60;99.90;;;;;;5091556;28;20036;-64
2023/04/17 03:00:12;;;;;;;31.30;17.08;;;8.60;99.90;;;;;;5092236;28;20480;-64
2023/04/17 03:02:37;;;;;;;38.17;18.55;;;8.60;99.90;;;;;;5092248;28;20036;-63
2023/04/17 03:05:04;;;;;;;35.00;18.33;;;8.60;99.90;;;;;;5090255;28;20050;-64
2023/04/17 03:07:29;;;;;;;36.05;18.23;;;8.50;99.90;;;;;;5092224;28;20518;-64
2023/04/17 03:09:56;;;;;;;35.25;17.38;;;8.50;99.90;;;;;;5090427;28;20020;-64
2023/04/17 03:12:22;;;;;;;31.80;16.88;;;8.50;99.90;;;;;;5092143;28;20047;-64
2023/04/17 03:14:47;;;;;;;36.92;17.95;;;8.50;99.90;;;;;;5092056;28;20501;-63
2023/04/17 03:17:14;;;;;;;33.17;17.05;;;8.50;99.90;;;;;;5091697;28;20024;-63
2023/04/17 03:19:40;;;;;;;32.67;16.30;;;8.50;99.90;;;;;;5090664;28;20023;-63
2023/04/17 03:22:05;;;;;;;36.95;19.33;;;8.50;99.90;;;;;;5092076;28;20024;-63
2023/04/17 03:24:31;;;;;;;31.75;17.27;;;8.50;99.90;;;;;;5091161;28;20031;-63
2023/04/17 03:26:58;;;;;;;34.05;16.33;;;8.50;99.90;;;;;;5095388;28;20484;-62
2023/04/17 03:29:24;;;;;;;36.00;18.08;;;8.50;99.90;;;;;;5092034;28;20017;-63
2023/04/17 03:31:49;;;;;;;33.70;17.90;;;8.50;99.90;;;;;;5090943;28;20030;-62
2023/04/17 03:34:16;;;;;;;35.58;18.30;;;8.50;99.90;;;;;;5090582;28;20040;-62
2023/04/17 03:36:42;;;;;;;38.25;18.67;;;8.50;99.90;;;;;;5091755;28;20082;-63
2023/04/17 03:39:07;;;;;;;34.28;17.92;;;8.50;99.90;;;;;;5089917;28;20032;-62
2023/04/17 03:41:33;;;;;;;34.25;17.33;;;8.50;99.90;;;;;;5091999;28;20035;-62
2023/04/17 03:43:59;;;;;;;42.40;20.27;;;8.50;99.90;;;;;;5091851;28;20103;-62
2023/04/17 03:46:24;;;;;;;37.55;18.40;;;8.50;99.90;;;;;;5091096;28;20082;-63
2023/04/17 03:48:50;;;;;;;36.85;17.65;;;8.50;99.90;;;;;;5094216;28;20020;-62
2023/04/17 03:51:16;;;;;;;38.63;17.65;;;8.50;99.90;;;;;;5095785;28;20033;-62
2023/04/17 03:53:41;;;;;;;35.60;17.52;;;8.40;99.90;;;;;;5094820;28;20058;-63
2023/04/17 03:56:07;;;;;;;41.55;20.13;;;8.40;99.90;;;;;;5107583;28;20024;-62
2023/04/17 03:58:33;;;;;;;39.22;18.50;;;8.40;99.90;;;;;;5105017;28;20035;-62
2023/04/17 04:01:00;;;;;;;44.67;19.02;;;8.40;99.90;;;;;;5095271;28;20074;-64
2023/04/17 04:03:27;;;;;;;39.20;18.45;;;8.40;99.90;;;;;;5099848;28;20012;-62
2023/04/17 04:05:52;;;;;;;38.15;18.58;;;8.40;99.90;;;;;;5104697;28;20071;-62
2023/04/17 04:08:18;;;;;;;44.40;18.92;;;8.40;99.90;;;;;;5114835;28;20054;-64
2023/04/17 04:10:44;;;;;;;42.38;20.08;;;8.40;99.90;;;;;;5115551;28;20046;-63
2023/04/17 04:13:10;;;;;;;45.88;20.08;;;8.40;99.90;;;;;;5115372;28;20019;-64
2023/04/17 04:15:36;;;;;;;44.53;19.92;;;8.40;99.90;;;;;;5114424;28;20023;-63
2023/04/17 04:18:02;;;;;;;43.55;20.70;;;8.40;99.90;;;;;;5114708;28;20019;-64
2023/04/17 04:20:27;;;;;;;44.15;20.23;;;8.40;99.90;;;;;;5114920;28;20027;-63
2023/04/17 04:22:56;;;;;;;43.60;20.85;;;8.40;99.90;;;;;;5114372;28;20015;-63
2023/04/17 04:25:22;;;;;;;48.50;20.98;;;8.40;99.90;;;;;;5115463;28;20340;-63
2023/04/17 04:27:50;;;;;;;47.60;22.55;;;8.40;99.90;;;;;;5113428;28;20016;-64
2023/04/17 04:30:16;;;;;;;44.20;20.58;;;8.40;99.90;;;;;;5115393;28;20028;-63
2023/04/17 04:32:44;;;;;;;48.28;21.15;;;8.40;99.90;;;;;;5115273;28;20450;-62
2023/04/17 04:35:10;;;;;;;47.47;22.23;;;8.40;99.90;;;;;;5111995;28;20031;-63
2023/04/17 04:37:36;;;;;;;60.00;24.35;;;8.40;99.90;;;;;;5093497;28;20397;-63
2023/04/17 04:40:09;;;;;;;55.88;22.83;;;8.40;99.90;;;;;;5094832;28;20027;-63
2023/04/17 04:42:36;;;;;;;47.63;21.30;;;8.40;99.90;;;;;;5094445;28;20024;-63
2023/04/17 04:45:03;;;;;;;49.38;20.50;;;8.40;99.90;;;;;;5094815;28;20496;-63
2023/04/17 04:47:28;;;;;;;52.80;23.40;;;8.40;99.90;;;;;;5094319;28;20106;-61
2023/04/17 04:49:54;;;;;;;53.38;23.05;;;8.40;99.90;;;;;;5093887;28;20099;-63
2023/04/17 04:52:20;;;;;;;52.45;22.15;;;8.40;99.90;;;;;;5094786;28;20035;-62
2023/04/17 04:54:45;;;;;;;58.85;24.98;;;8.40;99.90;;;;;;5092759;28;20030;-62
2023/04/17 04:57:11;;;;;;;53.20;21.95;;;8.40;99.90;;;;;;5093814;28;20073;-63
2023/04/17 04:59:37;;;;;;;50.10;21.92;;;8.40;99.90;;;;;;5093571;28;20024;-61
2023/04/17 05:02:02;;;;;;;53.75;24.65;;;8.40;99.90;;;;;;5093386;28;20353;-64
2023/04/17 05:04:28;;;;;;;58.42;24.42;;;8.40;99.90;;;;;;5091778;28;20028;-63
2023/04/17 05:06:54;;;;;;;59.03;23.15;;;8.40;99.90;;;;;;5091387;28;20059;-63
2023/04/17 05:09:19;;;;;;;61.17;24.50;;;8.40;99.90;;;;;;5094105;28;20028;-62
2023/04/17 05:11:45;;;;;;;56.03;24.52;;;8.50;99.90;;;;;;5092467;28;20027;-66
2023/04/17 05:14:10;;;;;;;54.65;24.25;;;8.40;99.90;;;;;;5093048;28;20113;-66
2023/04/17 05:16:36;;;;;;;58.85;23.63;;;8.50;99.90;;;;;;5093719;28;20020;-63
2023/04/17 05:19:01;;;;;;;61.28;24.67;;;8.50;99.90;;;;;;5093081;28;20043;-66
2023/04/17 05:21:27;;;;;;;63.33;23.67;;;8.50;99.90;;;;;;5094129;28;20078;-63
2023/04/17 05:23:53;;;;;;;54.70;23.70;;;8.50;99.90;;;;;;5093633;28;20046;-63
2023/04/17 05:26:21;;;;;;;60.70;25.17;;;8.50;99.90;;;;;;5094166;28;20036;-63
2023/04/17 05:28:47;;;;;;;64.88;25.45;;;8.50;99.90;;;;;;5092695;28;20074;-62
2023/04/17 05:31:13;;;;;;;63.63;25.40;;;8.50;99.90;;;;;;5093829;28;20532;-64
2023/04/17 05:33:39;;;;;;;52.83;24.10;;;8.50;99.90;;;;;;5093735;28;20035;-64
2023/04/17 05:36:06;;;;;;;60.17;26.30;;;8.50;99.90;;;;;;5094139;28;20095;-63
2023/04/17 05:38:31;;;;;;;60.00;25.60;;;8.50;99.90;;;;;;5085363;28;20065;-63
2023/04/17 05:40:57;;;;;;;62.35;24.50;;;8.60;99.90;;;;;;5085428;28;20024;-63
2023/04/17 05:43:23;;;;;;;57.00;23.45;;;8.60;99.90;;;;;;5092990;28;20024;-63
2023/04/17 05:45:48;;;;;;;53.47;23.23;;;8.60;99.90;;;;;;5091747;28;20024;-63
2023/04/17 05:48:14;;;;;;;66.38;27.75;;;8.60;99.90;;;;;;5093162;28;20434;-63
2023/04/17 05:50:40;;;;;;;58.40;24.27;;;8.60;99.90;;;;;;5091650;28;20024;-62
2023/04/17 05:53:05;;;;;;;62.63;27.33;;;8.70;99.90;;;;;;5092514;28;20023;-63
2023/04/17 05:55:31;;;;;;;55.30;23.90;;;8.70;99.90;;;;;;5092814;28;20034;-62
2023/04/17 05:57:57;;;;;;;53.80;24.65;;;8.60;99.90;;;;;;5093344;28;20030;-62
2023/04/17 06:00:23;;;;;;;58.15;25.55;;;8.70;99.90;;;;;;5092980;28;20036;-64
2023/04/17 06:02:49;;;;;;;58.72;25.40;;;8.70;99.90;;;;;;5093353;28;20035;-64
2023/04/17 06:05:16;;;;;;;51.92;22.60;;;8.70;99.90;;;;;;5093261;28;20054;-63
2023/04/17 06:07:42;;;;;;;57.90;25.42;;;8.70;99.90;;;;;;5092716;28;20030;-64
2023/04/17 06:10:08;;;;;;;58.15;24.38;;;8.80;99.90;;;;;;5091344;28;20099;-63
2023/04/17 06:12:35;;;;;;;60.38;25.95;;;8.80;99.90;;;;;;5091911;28;20023;-64
2023/04/17 06:15:00;;;;;;;52.25;24.45;;;8.80;99.90;;;;;;5092553;28;20032;-63
2023/04/17 06:17:26;;;;;;;54.25;22.60;;;8.80;99.90;;;;;;5093645;28;20103;-65
2023/04/17 06:19:52;;;;;;;54.97;24.77;;;8.80;99.90;;;;;;5091431;28;20028;-63
2023/04/17 06:22:17;;;;;;;57.45;24.35;;;8.80;99.90;;;;;;5093390;28;20016;-62
2023/04/17 06:24:43;;;;;;;56.42;24.92;;;8.80;99.90;;;;;;5091705;28;20036;-62
2023/04/17 06:27:08;;;;;;;53.72;22.85;;;8.90;99.90;;;;;;5092363;28;20061;-63
2023/04/17 06:29:34;;;;;;;54.15;26.30;;;8.90;99.90;;;;;;5092780;28;20074;-63
2023/04/17 06:32:00;;;;;;;57.88;25.85;;;8.90;99.90;;;;;;5092942;28;20024;-63
2023/04/17 06:34:25;;;;;;;53.47;24.55;;;8.90;99.90;;;;;;5092316;28;20024;-63
2023/04/17 06:36:52;;;;;;;54.50;23.98;;;9.00;99.90;;;;;;5091320;28;20452;-62
2023/04/17 06:39:17;;;;;;;55.97;25.60;;;9.00;99.90;;;;;;5092882;28;20016;-63
2023/04/17 06:41:43;;;;;;;57.20;24.15;;;9.00;99.90;;;;;;5092238;28;20024;-63
2023/04/17 06:44:08;;;;;;;52.40;23.85;;;9.00;99.90;;;;;;5092700;28;20031;-62
2023/04/17 06:46:34;;;;;;;57.22;25.70;;;9.10;99.90;;;;;;5092117;28;20369;-62
2023/04/17 06:49:01;;;;;;;55.83;26.92;;;9.10;99.90;;;;;;5091897;28;20082;-63
2023/04/17 06:51:28;;;;;;;57.40;24.35;;;9.10;99.90;;;;;;5092579;28;20034;-63
2023/04/17 06:53:53;;;;;;;50.47;24.48;;;9.20;99.90;;;;;;5092519;28;20095;-63
2023/04/17 06:56:19;;;;;;;54.35;25.10;;;9.30;99.90;;;;;;5090520;28;20508;-63
2023/04/17 06:58:45;;;;;;;52.97;25.40;;;9.30;99.90;;;;;;5092153;28;20024;-63
2023/04/17 07:01:12;;;;;;;52.58;24.73;;;9.30;99.90;;;;;;5092535;28;20384;-63
2023/04/17 07:03:39;;;;;;;51.67;24.23;;;9.40;99.90;;;;;;5090421;28;20379;-63
2023/04/17 07:06:05;;;;;;;60.75;26.33;;;9.40;99.90;;;;;;5092052;28;20056;-63
2023/04/17 07:08:31;;;;;;;53.47;24.23;;;9.30;99.90;;;;;;5092019;28;20028;-64
2023/04/17 07:10:56;;;;;;;50.60;24.65;;;9.30;99.90;;;;;;5091852;28;20027;-63
2023/04/17 07:13:22;;;;;;;56.75;25.25;;;9.30;99.90;;;;;;5092421;28;20028;-63
2023/04/17 07:15:54;;;;;;;53.17;24.92;;;9.30;99.90;;;;;;5092238;28;20023;-62
2023/04/17 07:18:20;;;;;;;52.40;26.45;;;9.30;99.90;;;;;;5090482;28;20388;-63
2023/04/17 07:20:47;;;;;;;52.83;25.35;;;9.30;99.90;;;;;;5091804;28;20024;-62
2023/04/17 07:23:13;;;;;;;50.58;24.77;;;9.40;99.90;;;;;;5095236;28;20149;-63
2023/04/17 07:25:39;;;;;;;49.65;24.70;;;9.40;99.90;;;;;;5096227;28;20124;-63
2023/04/17 07:28:06;;;;;;;48.42;25.00;;;9.40;99.90;;;;;;5096338;28;20385;-62
2023/04/17 07:30:31;;;;;;;55.03;26.10;;;9.50;99.90;;;;;;5095467;28;20490;-63
2023/04/17 07:32:57;;;;;;;54.53;26.17;;;9.40;99.90;;;;;;5096196;28;20056;-63
2023/04/17 07:35:23;;;;;;;56.13;25.95;;;9.50;99.90;;;;;;5096137;28;20016;-63
2023/04/17 07:37:48;;;;;;;58.35;28.77;;;9.50;99.90;;;;;;5093790;28;20038;-63
2023/04/17 07:40:17;;;;;;;53.72;26.88;;;9.50;99.90;;;;;;5096163;28;20490;-63
2023/04/17 07:42:43;;;;;;;56.40;26.33;;;9.50;99.90;;;;;;5094340;28;20020;-62
2023/04/17 07:45:09;;;;;;;60.88;27.60;;;9.40;99.90;;;;;;5094166;28;20023;-63
2023/04/17 07:47:35;;;;;;;54.90;26.00;;;9.40;99.90;;;;;;5095572;28;20026;-63
2023/04/17 07:50:01;;;;;;;56.85;27.02;;;9.40;99.90;;;;;;5095967;28;20025;-64
2023/04/17 07:52:26;;;;;;;57.15;25.98;;;9.30;99.90;;;;;;5094993;28;20024;-63
2023/04/17 07:54:52;;;;;;;60.22;27.80;;;9.40;99.90;;;;;;5095781;28;20440;-64
2023/04/17 07:57:18;;;;;;;57.65;25.70;;;9.40;99.90;;;;;;5095944;28;20070;-64
2023/04/17 07:59:44;;;;;;;52.35;26.92;;;9.40;99.90;;;;;;5094844;28;20024;-63
2023/04/17 08:02:10;;;;;;;59.65;26.70;;;9.40;99.90;;;;;;5095843;28;20016;-64
2023/04/17 08:04:36;;;;;;;52.38;25.58;;;9.40;99.90;;;;;;5095234;28;20381;-64
2023/04/17 08:07:02;;;;;;;56.88;26.15;;;9.50;99.90;;;;;;5095160;28;20434;-63
2023/04/17 08:09:27;;;;;;;59.65;26.83;;;9.60;99.90;;;;;;5095243;28;20095;-64
2023/04/17 08:11:53;;;;;;;52.90;26.15;;;9.60;99.90;;;;;;5094280;28;20029;-64
2023/04/17 08:14:19;;;;;;;58.35;26.67;;;9.80;99.90;;;;;;5095069;28;20024;-64
2023/04/17 08:16:48;;;;;;;59.15;27.40;;;9.90;99.90;;;;;;5095484;28;20038;-63
2023/04/17 08:19:14;;;;;;;61.83;28.70;;;9.90;99.90;;;;;;5095204;28;20056;-64
2023/04/17 08:21:40;;;;;;;58.65;28.05;;;9.90;99.90;;;;;;5095163;28;20078;-63
2023/04/17 08:24:06;;;;;;;52.25;25.38;;;10.00;99.90;;;;;;5094449;28;20531;-63
2023/04/17 08:26:32;;;;;;;52.58;26.98;;;10.10;99.90;;;;;;5094129;28;20028;-63
2023/04/17 08:29:01;;;;;;;46.58;26.42;;;10.10;99.90;;;;;;5095271;28;20020;-63
2023/04/17 08:31:27;;;;;;;55.47;26.20;;;10.30;99.90;;;;;;5095171;28;20026;-64
2023/04/17 08:33:54;;;;;;;56.70;26.52;;;10.30;99.90;;;;;;5093852;28;20179;-63
2023/04/17 08:36:19;;;;;;;58.25;27.70;;;10.40;99.90;;;;;;5095154;28;20059;-64
2023/04/17 08:38:46;;;;;;;54.38;27.10;;;10.50;99.90;;;;;;5094602;28;20409;-63
2023/04/17 08:41:20;;;;;;;56.72;27.38;;;10.60;99.90;;;;;;5094477;28;20085;-63
2023/04/17 08:43:52;;;;;;;50.80;26.67;;;10.70;99.90;;;;;;5094601;28;20710;-64
2023/04/17 08:46:20;;;;;;;48.70;24.55;;;10.70;99.90;;;;;;5095056;28;20392;-63
2023/04/17 08:48:46;;;;;;;50.75;26.25;;;10.70;99.90;;;;;;5093876;28;20373;-64
2023/04/17 08:51:12;;;;;;;49.83;25.40;;;10.70;99.90;;;;;;5093689;28;20025;-63
2023/04/17 08:53:38;;;;;;;54.08;26.30;;;10.70;99.90;;;;;;5094613;28;20024;-63
2023/04/17 08:56:05;;;;;;;51.70;25.55;;;10.70;99.90;;;;;;5093941;28;20027;-63
2023/04/17 08:58:35;;;;;;;48.30;24.35;;;10.80;99.90;;;;;;5094260;28;20012;-63
2023/04/17 09:01:14;;;;;;;48.92;24.15;;;10.80;99.90;;;;;;5094787;28;20065;-63
2023/04/17 09:03:46;;;;;;;44.28;25.10;;;10.80;99.90;;;;;;5093780;28;20353;-64
2023/04/17 09:06:13;;;;;;;48.35;25.55;;;10.90;99.90;;;;;;5093013;28;20508;-64
2023/04/17 09:08:53;;;;;;;47.55;24.65;;;11.00;99.90;;;;;;5093559;28;20119;-63
2023/04/17 09:11:19;;;;;;;47.58;25.38;;;11.10;99.90;;;;;;5094477;28;20488;-63
2023/04/17 09:13:45;;;;;;;48.05;27.08;;;11.30;99.90;;;;;;5094126;28;20024;-63
2023/04/17 09:16:12;;;;;;;44.97;23.73;;;11.30;99.90;;;;;;5093672;28;20024;-63
2023/04/17 09:18:40;;;;;;;46.95;23.67;;;11.40;99.90;;;;;;5093964;28;20095;-63
2023/04/17 09:21:06;;;;;;;45.58;24.10;;;11.60;99.90;;;;;;5094413;28;20032;-63
2023/04/17 09:23:53;;;;;;;46.97;24.90;;;11.70;99.90;;;;;;5093203;28;20388;-63
2023/04/17 09:26:21;;;;;;;37.38;21.77;;;11.80;99.90;;;;;;5093181;28;20439;-64
2023/04/17 09:29:13;;;;;;;40.72;21.73;;;11.80;99.90;;;;;;5092362;28;20028;-63
2023/04/17 09:31:41;;;;;;;43.85;23.58;;;11.80;99.90;;;;;;5091951;28;20028;-63
2023/04/17 09:34:11;;;;;;;39.70;21.67;;;11.80;99.90;;;;;;5094031;28;20089;-63
2023/04/17 09:36:38;;;;;;;36.40;21.37;;;11.80;99.90;;;;;;5091907;28;20028;-62
2023/04/17 09:39:24;;;;;;;36.85;20.13;;;11.70;99.90;;;;;;5092579;28;20111;-63
2023/04/17 09:42:01;;;;;;;40.70;20.33;;;11.70;99.90;;;;;;5093231;28;20029;-63
2023/04/17 09:44:28;;;;;;;34.90;19.77;;;11.90;99.90;;;;;;5125423;27;20031;-63
2023/04/17 09:46:55;;;;;;;34.47;19.63;;;12.00;99.90;;;;;;5093423;28;20055;-63
2023/04/17 09:49:37;;;;;;;36.15;20.50;;;12.20;99.90;;;;;;5093664;28;20024;-63
2023/04/17 09:52:03;;;;;;;34.05;19.05;;;12.40;99.90;;;;;;5093161;28;20506;-64
2023/04/17 09:54:36;;;;;;;32.03;18.55;;;12.50;99.90;;;;;;5093421;28;20091;-63
2023/04/17 09:57:03;;;;;;;35.45;19.75;;;12.60;99.90;;;;;;5093691;28;20448;-64
2023/04/17 09:59:32;;;;;;;31.38;18.98;;;12.70;99.90;;;;;;5092671;28;20527;-64
2023/04/17 10:02:00;;;;;;;28.85;17.27;;;12.70;99.90;;;;;;5093576;28;20350;-63
2023/04/17 10:04:27;;;;;;;35.80;17.85;;;12.70;99.90;;;;;;5093583;28;20020;-63
2023/04/17 10:06:55;;;;;;;32.72;18.95;;;12.70;99.90;;;;;;5092827;28;20035;-62
2023/04/17 10:09:21;;;;;;;29.33;16.83;;;12.80;99.90;;;;;;5093516;28;20016;-64
2023/04/17 10:11:47;;;;;;;32.63;19.42;;;12.90;99.90;;;;;;5092915;28;20365;-63
2023/04/17 10:14:23;;;;;;;34.58;20.08;;;12.90;99.90;;;;;;5093296;28;20024;-63
2023/04/17 10:16:49;;;;;;;35.38;19.85;;;13.10;99.90;;;;;;5092841;28;20451;-64
2023/04/17 10:19:35;;;;;;;30.80;18.35;;;13.10;99.90;;;;;;5090976;28;20020;-64
2023/04/17 10:22:19;;;;;;;33.00;18.27;;;13.30;99.90;;;;;;5092111;28;20055;-64
2023/04/17 10:24:46;;;;;;;31.65;17.70;;;13.40;99.90;;;;;;5091358;28;20024;-63
2023/04/17 10:27:24;;;;;;;31.23;17.95;;;13.60;99.90;;;;;;5090850;28;20032;-63
2023/04/17 10:30:01;;;;;;;28.50;17.70;;;13.70;99.90;;;;;;5091245;28;20055;-63
2023/04/17 10:32:28;;;;;;;31.77;18.52;;;13.80;99.90;;;;;;5093092;28;20045;-63
2023/04/17 10:34:58;;;;;;;29.52;18.20;;;13.80;99.90;;;;;;5092034;28;20020;-63
2023/04/17 10:38:00;;;;;;;33.78;18.13;;;13.90;99.90;;;;;;5092732;28;20487;-63
2023/04/17 10:40:29;;;;;;;29.98;17.38;;;14.00;99.90;;;;;;5080376;28;20051;-63
2023/04/17 10:43:22;;;;;;;29.98;17.02;;;14.10;99.90;;;;;;5091510;28;20102;-63
2023/04/17 10:46:08;;;;;;;26.95;16.13;;;14.20;99.90;;;;;;5092125;28;20384;-64
2023/04/17 10:48:48;;;;;;;33.15;17.42;;;14.40;99.90;;;;;;5091691;28;20028;-63
2023/04/17 10:51:23;;;;;;;28.95;16.33;;;14.40;99.90;;;;;;5091435;28;20135;-63
2023/04/17 10:53:50;;;;;;;30.55;16.98;;;14.50;99.90;;;;;;5092265;28;20099;-63
2023/04/17 10:56:32;;;;;;;26.80;15.15;;;14.70;99.90;;;;;;5090151;28;20044;-63
2023/04/17 10:59:01;;;;;;;22.15;13.95;;;14.80;99.90;;;;;;5091086;28;20028;-63
2023/04/17 11:01:36;;;;;;;25.55;15.73;;;14.80;99.90;;;;;;5091537;28;20104;-63
2023/04/17 11:04:03;;;;;;;26.05;15.88;;;14.80;99.90;;;;;;5094289;28;20063;-63
2023/04/17 11:06:31;;;;;;;23.80;14.93;;;14.80;99.90;;;;;;5086038;28;20044;-63
2023/04/17 11:08:58;;;;;;;26.20;14.70;;;15.00;99.90;;;;;;5084864;28;20066;-62
2023/04/17 11:11:25;;;;;;;23.05;14.85;;;15.10;99.90;;;;;;5091558;28;20504;-62
2023/04/17 11:13:51;;;;;;;28.45;15.60;;;15.20;97.90;;;;;;5089766;28;20055;-62
2023/04/17 11:16:18;;;;;;;28.50;16.38;;;15.20;97.50;;;;;;5089446;28;20055;-62
2023/04/17 11:18:45;;;;;;;23.92;14.75;;;15.10;98.10;;;;;;5090279;28;20031;-63
2023/04/17 11:21:14;;;;;;;24.90;15.70;;;15.20;98.50;;;;;;5101242;28;20102;-62
2023/04/17 11:23:49;;;;;;;29.75;15.85;;;15.20;98.80;;;;;;5107937;28;20666;-61
2023/04/17 11:26:16;;;;;;;25.10;15.38;;;15.30;98.60;;;;;;5091128;28;20032;-63
2023/04/17 11:28:41;;;;;;;23.27;14.45;;;15.30;97.40;;;;;;5090805;28;20024;-62
2023/04/17 11:31:08;;;;;;;21.58;14.35;;;15.30;95.60;;;;;;5090597;28;20077;-62
2023/04/17 11:33:36;;;;;;;23.17;14.63;;;15.40;95.90;;;;;;5090671;28;20028;-62
2023/04/17 11:36:05;;;;;;;19.08;13.27;;;15.40;95.10;;;;;;5090039;28;20460;-62
2023/04/17 11:38:31;;;;;;;22.65;15.23;;;15.40;94.60;;;;;;5090051;28;20096;-63
2023/04/17 11:40:59;;;;;;;26.90;15.40;;;15.40;96.10;;;;;;5090507;28;20059;-62
2023/04/17 11:43:26;;;;;;;25.70;15.63;;;15.30;95.30;;;;;;5099913;28;20012;-63
2023/04/17 11:45:55;;;;;;;25.30;14.35;;;15.40;95.40;;;;;;5109847;28;20031;-63
2023/04/17 11:48:22;;;;;;;21.80;14.05;;;15.30;93.80;;;;;;5111577;28;20058;-63
2023/04/17 11:50:48;;;;;;;22.67;13.80;;;15.30;94.10;;;;;;5110145;28;20024;-62
2023/04/17 11:53:16;;;;;;;23.70;14.32;;;15.20;92.40;;;;;;5110456;28;20403;-62
2023/04/17 11:55:43;;;;;;;20.38;13.57;;;15.20;92.10;;;;;;5110705;28;20027;-62
2023/04/17 11:58:11;;;;;;;22.30;14.48;;;15.10;93.30;;;;;;5110161;28;20028;-62
2023/04/17 12:00:39;;;;;;;24.23;14.00;;;15.10;92.70;;;;;;5103742;28;20020;-63
2023/04/17 12:03:32;;;;;;;19.75;13.10;;;15.10;93.10;;;;;;5096837;28;20028;-62
2023/04/17 12:06:03;;;;;;;21.00;13.27;;;14.90;93.10;;;;;;5102458;28;20047;-62
2023/04/17 12:08:29;;;;;;;18.73;11.88;;;14.90;92.60;;;;;;5111287;28;20034;-63
2023/04/17 12:10:56;;;;;;;19.40;11.63;;;14.90;92.40;;;;;;5114855;28;20012;-62
2023/04/17 12:13:23;;;;;;;22.73;13.15;;;15.00;92.00;;;;;;5114206;28;20487;-62
2023/04/17 12:15:49;;;;;;;20.77;12.95;;;15.10;92.30;;;;;;5098430;28;20154;-63
2023/04/17 12:18:15;;;;;;;18.52;12.60;;;15.20;92.60;;;;;;5094566;28;20016;-63
2023/04/17 12:20:41;;;;;;;18.15;12.45;;;15.30;92.40;;;;;;5093610;28;20027;-63
2023/04/17 12:23:07;;;;;;;19.92;11.52;;;15.30;93.10;;;;;;5094655;28;20020;-63
2023/04/17 12:25:33;;;;;;;20.30;13.05;;;15.30;90.60;;;;;;5094445;28;20485;-64
2023/04/17 12:28:00;;;;;;;17.30;11.90;;;15.30;90.40;;;;;;5107062;28;20174;-64
2023/04/17 12:30:26;;;;;;;18.00;11.57;;;15.30;89.60;;;;;;5093521;28;20103;-63
2023/04/17 12:32:53;;;;;;;14.90;9.65;;;15.40;89.10;;;;;;5093347;28;20035;-62
2023/04/17 12:35:20;;;;;;;19.75;10.98;;;15.40;84.70;;;;;;5094076;28;20035;-62